Terminal Aerodrome Forecast
Issued by NWS

Home | Current Version | Previous Version | Text Only | Print | Product List | Glossary On
Versions: 1 2 3 4 5 6 7 8 9 10 11 12 13 14 15 16 17 18 19 20 21
000
FTUS46 KSGX 020809 AAA
TAFCRQ
TAF AMD
KCRQ 020809Z 0208/0306 VRB05KT 6SM BR FEW007
      TEMPO 0210/0214 5SM BR BKN006
     FM021500 VRB05KT P6SM SCT007
     FM021900 25009KT P6SM SCT200
     FM030200 VRB04KT P6SM SCT008
     FM030500 VRB03KT P6SM BKN008=

USA.gov is the U.S. government's official web portal to all federal, state and local government web resources and services.